SBOSBO TFS / GCTS
Speedbird OnlineSpeedbird Online TFS / GCTS

Tenerife South Airport
11:57 24.2°C

Location Tenerife, Spain
Latitude: 28.044500351
Longitude: -16.5725002289
Local Time 11:57 on 17 Jun 2024
UTC +1 hours (Atlantic/Canary)
Currency £1 equals EUR 1.19
METAR GCTS 171030Z 08017KT 9999 FEW030 24/14 Q1017 NOSIG
TAF TAF GCTS 170800Z 1709/1809 08018KT 9999 FEW035 TX26/1714Z TN18/1806Z TEMPO 1709/1711 04007KT PROB30 TEMPO 1712/1720 08016G26KT BECMG 1720/1723 04008KT
Weather As Of 17 Jun 2024 11:45
Description Few clouds
Wind 32 km/h from East (80°)
Cloud Cover 20%
Precipitation Rain: none, Snow: none
Sunrise 07:09
Sunset 21:04
NOTAM 24 active NOTAM
Rotations During the last 90 days there were
132 flights from LGW
46 flights from LHR
134 flights to LGW
49 flights to LHR
Lounges Montaña Roja Lounge, Main Terminal
Web Airport Website | Wikipedia
Codes IATA: TFS
ICAO: GCTS
Altitude 64 Meter / 209 Feet
Distance 2,958 KM / 1,838 Miles
from London.
Runways
RunwayLength (m)Surface
073200Asphalt
253200Asphalt
Radio
TypeDescriptionFrequency
APPAPP120.3
ATISATIS118.675
DLV121.75
GNDGND121.9
TWRTWR119
Live ATC



Support Speedbird Online

© 2017-2024 Speedbird Online